createdAt,value
2018-12-13T00:00:22.814Z,3.80
2018-12-13T00:02:52.069Z,3.83
2018-12-13T00:05:21.321Z,3.90
2018-12-13T00:07:50.599Z,4.80
2018-12-13T00:10:19.884Z,4.35
2018-12-13T00:12:49.148Z,3.65
2018-12-13T00:15:22.631Z,4.03
2018-12-13T00:17:51.882Z,3.75
2018-12-13T00:20:21.129Z,3.83
2018-12-13T00:22:50.358Z,3.95
2018-12-13T00:25:19.584Z,3.50
2018-12-13T00:27:48.824Z,3.90
2018-12-13T00:30:18.076Z,3.90
2018-12-13T00:32:47.342Z,3.60
2018-12-13T00:35:16.615Z,3.95
2018-12-13T00:37:45.872Z,4.50
2018-12-13T00:40:15.110Z,4.45
2018-12-13T00:42:44.382Z,5.00
2018-12-13T00:45:13.645Z,5.53
2018-12-13T00:47:42.874Z,5.22
2018-12-13T00:50:12.141Z,4.15
2018-12-13T00:52:41.373Z,5.08
2018-12-13T00:55:10.714Z,4.42
2018-12-13T00:57:39.993Z,4.28
2018-12-13T01:00:09.492Z,4.45
2018-12-13T01:02:38.746Z,4.37
2018-12-13T01:05:07.970Z,3.98
2018-12-13T01:07:37.237Z,5.62
2018-12-13T01:10:06.742Z,5.33
2018-12-13T01:12:35.969Z,4.22
2018-12-13T01:15:05.621Z,4.83
2018-12-13T01:17:35.799Z,5.20
2018-12-13T01:20:05.537Z,5.03
2018-12-13T01:22:34.831Z,4.95
2018-12-13T01:25:04.452Z,4.50
2018-12-13T01:27:33.687Z,4.55
2018-12-13T01:30:02.965Z,5.58
2018-12-13T01:32:32.214Z,5.00
2018-12-13T01:35:01.453Z,5.45
2018-12-13T01:37:30.793Z,5.00
2018-12-13T01:40:00.108Z,4.65
2018-12-13T01:42:29.371Z,4.55
2018-12-13T01:44:58.621Z,4.90
2018-12-13T01:47:27.920Z,4.22
2018-12-13T01:49:57.174Z,4.40
2018-12-13T01:52:26.424Z,5.33
2018-12-13T01:54:55.674Z,4.05
2018-12-13T01:57:24.926Z,5.08
2018-12-13T01:59:54.161Z,4.95
2018-12-13T02:02:23.448Z,4.75
2018-12-13T02:04:52.722Z,4.60
2018-12-13T02:07:21.914Z,4.90
2018-12-13T02:09:51.128Z,4.47
2018-12-13T02:12:21.011Z,5.20
2018-12-13T02:14:50.422Z,5.53
2018-12-13T02:17:19.674Z,5.22
2018-12-13T02:19:49.194Z,4.55
2018-12-13T02:22:18.448Z,5.72
2018-12-13T02:24:47.668Z,5.60
2018-12-13T02:27:16.910Z,5.20
2018-12-13T02:29:46.154Z,5.25
2018-12-13T02:32:15.422Z,5.35
2018-12-13T02:34:44.660Z,4.97
2018-12-13T02:37:13.951Z,6.12
2018-12-13T02:39:43.184Z,5.87
2018-12-13T02:42:13.429Z,4.87
2018-12-13T02:44:42.743Z,5.85
2018-12-13T02:47:11.970Z,6.00
2018-12-13T02:49:41.234Z,5.80
2018-12-13T02:52:10.527Z,5.60
2018-12-13T02:54:39.899Z,5.37
2018-12-13T02:57:09.124Z,5.17
2018-12-13T02:59:38.389Z,5.72
2018-12-13T03:02:07.614Z,5.85
2018-12-13T03:04:36.881Z,4.97
2018-12-13T03:07:13.347Z,5.58
2018-12-13T03:09:37.338Z,6.22
2018-12-13T03:12:06.574Z,5.50
2018-12-13T03:14:35.811Z,5.85
2018-12-13T03:17:05.160Z,5.40
2018-12-13T03:19:34.408Z,5.17
2018-12-13T03:22:03.732Z,6.05
2018-12-13T03:24:32.999Z,5.12
2018-12-13T03:27:02.229Z,5.60
2018-12-13T03:29:31.474Z,6.37
2018-12-13T03:32:00.725Z,6.75
2018-12-13T03:34:30.656Z,5.80
2018-12-13T03:36:59.895Z,5.37
2018-12-13T03:39:29.135Z,5.75
2018-12-13T03:41:58.337Z,5.55
2018-12-13T03:44:27.586Z,5.90
2018-12-13T03:46:56.816Z,6.25
2018-12-13T03:49:26.045Z,5.95
2018-12-13T03:51:55.293Z,5.35
2018-12-13T03:54:24.527Z,7.55
2018-12-13T03:56:53.789Z,6.62
2018-12-13T03:59:23.038Z,6.53
2018-12-13T04:01:52.305Z,6.85
2018-12-13T04:04:21.617Z,5.20
2018-12-13T04:06:50.834Z,6.50
2018-12-13T04:09:20.165Z,5.37
2018-12-13T04:11:49.414Z,5.35
2018-12-13T04:14:18.688Z,6.35
2018-12-13T04:16:47.949Z,5.78
2018-12-13T04:19:17.711Z,5.08
2018-12-13T04:21:46.933Z,6.55
2018-12-13T04:24:16.274Z,5.95
2018-12-13T04:26:45.558Z,6.15
2018-12-13T04:29:14.846Z,6.80
2018-12-13T04:31:44.124Z,5.75
2018-12-13T04:34:13.450Z,6.00
2018-12-13T04:36:42.695Z,7.05
2018-12-13T04:39:11.966Z,6.00
2018-12-13T04:41:41.234Z,6.33
2018-12-13T04:44:10.524Z,6.22
2018-12-13T04:46:39.756Z,6.17
2018-12-13T04:49:09.015Z,5.65
2018-12-13T04:51:38.223Z,6.58
2018-12-13T04:54:07.474Z,7.03
2018-12-13T04:56:36.718Z,6.62
2018-12-13T04:59:05.962Z,7.20
2018-12-13T05:01:35.218Z,6.72
2018-12-13T05:04:04.465Z,7.95
2018-12-13T05:06:33.708Z,7.37
2018-12-13T05:09:04.204Z,7.15
2018-12-13T05:11:33.563Z,7.62
2018-12-13T05:14:02.918Z,7.00
2018-12-13T05:16:32.177Z,7.00
2018-12-13T05:19:01.481Z,8.00
2018-12-13T05:21:30.724Z,6.50
2018-12-13T05:23:59.988Z,6.53
2018-12-13T05:26:29.261Z,7.20
2018-12-13T05:28:58.706Z,7.58
2018-12-13T05:31:27.960Z,6.05
2018-12-13T05:33:57.354Z,7.60
2018-12-13T05:36:26.606Z,7.25
2018-12-13T05:38:56.765Z,7.08
2018-12-13T05:41:26.018Z,6.30
2018-12-13T05:43:55.349Z,6.92
2018-12-13T05:46:24.598Z,7.60
2018-12-13T05:48:54.606Z,7.03
2018-12-13T05:51:24.305Z,7.92
2018-12-13T05:53:53.609Z,7.47
2018-12-13T05:56:22.842Z,6.75
2018-12-13T05:58:52.076Z,6.15
2018-12-13T06:01:21.355Z,7.78
2018-12-13T06:03:50.754Z,7.62
2018-12-13T06:06:20.016Z,7.47
2018-12-13T06:08:49.517Z,7.53
2018-12-13T06:11:18.759Z,7.65
2018-12-13T06:13:48.005Z,8.28
2018-12-13T06:16:17.224Z,7.87
2018-12-13T06:18:46.484Z,7.95
2018-12-13T06:21:15.916Z,7.15
2018-12-13T06:23:45.159Z,7.35
2018-12-13T06:26:14.418Z,7.45
2018-12-13T06:28:43.689Z,5.75
2018-12-13T06:31:12.977Z,7.72
2018-12-13T06:33:42.237Z,9.63
2018-12-13T06:36:11.491Z,8.80
2018-12-13T06:38:40.793Z,8.45
2018-12-13T06:41:10.021Z,8.13
2018-12-13T06:43:39.417Z,7.40
2018-12-13T06:46:08.702Z,8.38
2018-12-13T06:48:37.944Z,7.95
2018-12-13T06:51:07.178Z,7.33
2018-12-13T06:53:36.434Z,8.13
2018-12-13T06:56:05.691Z,8.05
2018-12-13T06:58:34.944Z,8.10
2018-12-13T07:01:04.197Z,8.65
2018-12-13T07:03:33.451Z,8.33
2018-12-13T07:06:02.792Z,8.25
2018-12-13T07:08:32.036Z,7.55
2018-12-13T07:11:01.315Z,6.83
2018-12-13T07:13:30.656Z,8.80
2018-12-13T07:15:59.936Z,7.35
2018-12-13T07:18:29.199Z,7.50
2018-12-13T07:20:58.505Z,8.20
2018-12-13T07:23:27.754Z,8.30
2018-12-13T07:25:57.032Z,7.00
2018-12-13T07:28:26.285Z,8.18
2018-12-13T07:30:55.564Z,7.67
2018-12-13T07:33:24.808Z,7.30
2018-12-13T07:35:54.051Z,8.05
2018-12-13T07:38:23.314Z,7.75
2018-12-13T07:40:52.577Z,7.30
2018-12-13T07:43:21.826Z,7.35
2018-12-13T07:45:51.104Z,7.53
2018-12-13T07:48:20.357Z,7.08
2018-12-13T07:50:49.622Z,7.53
2018-12-13T07:53:18.853Z,8.10
2018-12-13T07:55:48.111Z,8.40
2018-12-13T07:58:17.941Z,8.40
2018-12-13T08:00:47.209Z,7.58
2018-12-13T08:03:16.474Z,8.68
2018-12-13T08:05:46.518Z,7.50
2018-12-13T08:08:20.862Z,8.53
2018-12-13T08:10:47.013Z,7.83
2018-12-13T08:13:16.291Z,7.22
2018-12-13T08:15:45.535Z,8.55
2018-12-13T08:18:14.858Z,7.65
2018-12-13T08:20:44.110Z,7.83
2018-12-13T08:23:13.370Z,7.15
2018-12-13T08:25:42.591Z,6.95
2018-12-13T08:28:11.831Z,8.08
2018-12-13T08:30:41.091Z,6.72
2018-12-13T08:33:10.349Z,8.45
2018-12-13T08:35:39.611Z,8.53
2018-12-13T08:38:08.850Z,8.63
2018-12-13T08:40:38.103Z,9.20
2018-12-13T08:43:07.350Z,7.37
2018-12-13T08:45:36.597Z,7.17
2018-12-13T08:48:05.823Z,7.40
2018-12-13T08:50:35.066Z,8.40
2018-12-13T08:53:04.324Z,8.35
2018-12-13T08:55:33.660Z,7.97
2018-12-13T08:58:02.953Z,8.00
2018-12-13T09:00:32.257Z,7.75
2018-12-13T09:03:01.500Z,7.58
2018-12-13T09:05:30.849Z,7.78
2018-12-13T09:08:00.098Z,8.53
2018-12-13T09:10:29.365Z,7.67
2018-12-13T09:12:58.602Z,8.38
2018-12-13T09:15:27.873Z,8.55
2018-12-13T09:17:57.112Z,8.15
2018-12-13T09:20:26.450Z,7.53
2018-12-13T09:22:55.694Z,8.75
2018-12-13T09:25:24.970Z,7.55
2018-12-13T09:27:54.737Z,8.35
2018-12-13T09:30:23.970Z,8.73
2018-12-13T09:32:53.258Z,9.00
2018-12-13T09:35:23.226Z,8.70
2018-12-13T09:37:52.500Z,7.72
2018-12-13T09:40:21.753Z,7.20
2018-12-13T09:42:51.010Z,8.28
2018-12-13T09:45:20.266Z,8.20
2018-12-13T09:47:49.513Z,8.25
2018-12-13T09:50:18.781Z,7.62
2018-12-13T09:52:48.035Z,9.10
2018-12-13T09:55:17.301Z,8.25
2018-12-13T09:57:47.284Z,9.20
2018-12-13T10:00:16.581Z,8.05
2018-12-13T10:02:45.853Z,7.97
2018-12-13T10:05:15.139Z,8.73
2018-12-13T10:07:45.028Z,10.40
2018-12-13T10:10:14.869Z,9.45
2018-12-13T10:12:44.134Z,8.05
2018-12-13T10:15:13.469Z,8.50
2018-12-13T10:17:42.729Z,8.20
2018-12-13T10:20:12.121Z,7.53
2018-12-13T10:22:41.418Z,8.83
2018-12-13T10:25:10.637Z,8.28
2018-12-13T10:27:39.866Z,8.25
2018-12-13T10:30:09.228Z,9.80
2018-12-13T10:32:38.486Z,9.30
2018-12-13T10:35:11.334Z,9.53
2018-12-13T10:37:39.086Z,9.10
2018-12-13T10:40:08.400Z,9.15
2018-12-13T10:42:37.693Z,9.65
2018-12-13T10:45:07.253Z,9.28
2018-12-13T10:47:36.509Z,9.05
2018-12-13T10:50:06.999Z,9.65
2018-12-13T10:52:36.251Z,7.62
2018-12-13T10:55:05.945Z,9.63
2018-12-13T10:57:35.173Z,9.48
2018-12-13T11:00:07.459Z,9.93
2018-12-13T11:02:52.273Z,9.73
2018-12-13T11:05:21.521Z,10.75
2018-12-13T11:07:50.786Z,10.95
2018-12-13T11:10:25.430Z,8.85
2018-12-13T11:12:51.294Z,9.28
2018-12-13T11:15:20.509Z,8.80
2018-12-13T11:17:49.800Z,11.20
2018-12-13T11:20:19.037Z,8.68
2018-12-13T11:22:48.278Z,10.35
2018-12-13T11:25:17.532Z,10.53
2018-12-13T11:28:24.113Z,10.32
2018-12-13T11:30:53.355Z,10.40
2018-12-13T11:33:22.605Z,10.32
2018-12-13T11:35:51.924Z,10.45
2018-12-13T11:38:21.209Z,10.13
2018-12-13T11:40:50.445Z,10.40
2018-12-13T11:43:19.886Z,11.22
2018-12-13T11:45:49.113Z,12.63
2018-12-13T11:48:18.473Z,10.85
2018-12-13T11:50:47.726Z,11.08
2018-12-13T11:53:17.025Z,10.53
2018-12-13T11:55:46.395Z,10.30
2018-12-13T11:58:16.863Z,10.93
2018-12-13T12:00:46.110Z,10.45
2018-12-13T12:03:15.373Z,11.65
2018-12-13T12:05:44.601Z,9.83
2018-12-13T12:08:13.901Z,10.00
2018-12-13T12:10:43.281Z,10.65
2018-12-13T12:13:12.560Z,9.53
2018-12-13T12:15:41.811Z,11.03
2018-12-13T12:18:11.049Z,9.40
2018-12-13T12:20:40.324Z,11.38
2018-12-13T12:23:09.561Z,10.23
2018-12-13T12:25:38.875Z,10.88
2018-12-13T12:28:08.142Z,11.60
2018-12-13T12:30:37.405Z,8.93
2018-12-13T12:33:06.677Z,12.30
2018-12-13T12:35:35.944Z,11.48
2018-12-13T12:38:05.241Z,11.30
2018-12-13T12:40:34.505Z,10.72
2018-12-13T12:43:03.769Z,11.18
2018-12-13T12:45:33.053Z,11.60
2018-12-13T12:48:02.310Z,10.72
2018-12-13T12:50:31.569Z,13.28
2018-12-13T12:53:00.846Z,11.95
2018-12-13T12:55:30.094Z,11.00
2018-12-13T12:57:59.341Z,11.12
2018-12-13T13:00:28.628Z,11.73
2018-12-13T13:02:58.228Z,11.68
2018-12-13T13:05:27.480Z,11.70
2018-12-13T13:07:57.746Z,11.73
2018-12-13T13:10:27.203Z,10.40
2018-12-13T13:12:56.439Z,11.20
2018-12-13T13:15:25.775Z,11.40
2018-12-13T13:17:55.009Z,12.30
2018-12-13T13:20:24.262Z,12.07
2018-12-13T13:22:53.533Z,12.78
2018-12-13T13:25:22.820Z,11.90
2018-12-13T13:27:52.150Z,12.28
2018-12-13T13:30:21.465Z,12.18
2018-12-13T13:32:50.706Z,11.03
2018-12-13T13:35:20.015Z,12.68
2018-12-13T13:37:49.225Z,12.82
2018-12-13T13:40:18.454Z,11.22
2018-12-13T13:42:47.813Z,10.85
2018-12-13T13:45:18.868Z,11.15
2018-12-13T13:47:48.236Z,13.03
2018-12-13T13:50:17.527Z,12.53
2018-12-13T13:52:46.793Z,12.25
2018-12-13T13:55:16.177Z,13.72
2018-12-13T13:57:45.548Z,11.78
2018-12-13T14:00:15.009Z,11.83
2018-12-13T14:02:44.313Z,12.82
2018-12-13T14:05:13.713Z,11.65
2018-12-13T14:07:43.002Z,12.98
2018-12-13T14:10:12.409Z,12.15
2018-12-13T14:12:41.680Z,11.25
2018-12-13T14:15:10.937Z,12.82
2018-12-13T14:17:40.189Z,12.23
2018-12-13T14:20:09.588Z,12.35
2018-12-13T14:22:38.885Z,12.10
2018-12-13T14:25:08.288Z,12.45
2018-12-13T14:27:37.566Z,13.35
2018-12-13T14:30:07.335Z,12.75
2018-12-13T14:32:36.645Z,12.53
2018-12-13T14:35:06.440Z,11.40
2018-12-13T14:37:35.799Z,12.93
2018-12-13T14:40:05.453Z,10.85
2018-12-13T14:42:34.745Z,11.88
2018-12-13T14:45:04.573Z,12.10
2018-12-13T14:47:33.854Z,10.28
2018-12-13T14:50:03.137Z,11.75
2018-12-13T14:52:32.460Z,12.07
2018-12-13T14:55:01.709Z,13.83
2018-12-13T14:57:31.014Z,17.45
2018-12-13T15:00:00.360Z,14.25
2018-12-13T15:02:29.693Z,11.38
2018-12-13T15:04:59.002Z,11.95
2018-12-13T15:07:28.276Z,12.55
2018-12-13T15:09:57.568Z,12.37
2018-12-13T15:12:26.849Z,13.53
2018-12-13T15:14:56.153Z,13.08
2018-12-13T15:17:25.433Z,13.13
2018-12-13T15:19:54.697Z,12.60
2018-12-13T15:22:23.966Z,11.40
2018-12-13T15:24:53.229Z,12.05
2018-12-13T15:27:22.476Z,10.18
2018-12-13T15:29:51.761Z,11.43
2018-12-13T15:32:21.118Z,11.80
2018-12-13T15:34:50.385Z,11.20
2018-12-13T15:37:19.753Z,11.43
2018-12-13T15:39:49.012Z,11.85
2018-12-13T15:42:18.295Z,10.72
2018-12-13T15:44:47.642Z,12.18
2018-12-13T15:47:16.985Z,12.30
2018-12-13T15:49:46.696Z,11.35
2018-12-13T15:52:15.982Z,11.55
2018-12-13T15:54:45.260Z,11.10
2018-12-13T15:57:14.573Z,10.90
2018-12-13T15:59:43.834Z,12.37
2018-12-13T16:02:13.126Z,11.95
2018-12-13T16:04:42.448Z,11.33
2018-12-13T16:07:11.741Z,10.75
2018-12-13T16:09:41.041Z,12.68
2018-12-13T16:12:10.316Z,10.68
2018-12-13T16:14:39.616Z,10.32
2018-12-13T16:17:08.910Z,8.63
2018-12-13T16:19:38.203Z,9.35
2018-12-13T16:22:07.460Z,9.60
2018-12-13T16:24:36.709Z,10.13
2018-12-13T16:27:06.025Z,10.05
2018-12-13T16:29:35.435Z,11.12
2018-12-13T16:32:04.894Z,10.32
2018-12-13T16:34:34.123Z,10.98
2018-12-13T16:37:03.428Z,8.98
2018-12-13T16:39:32.679Z,9.68
2018-12-13T16:42:01.954Z,10.63
2018-12-13T16:44:31.310Z,10.93
2018-12-13T16:47:01.146Z,10.53
2018-12-13T16:49:30.425Z,10.03
2018-12-13T16:51:59.768Z,10.32
2018-12-13T16:54:29.054Z,9.50
2018-12-13T16:56:58.321Z,9.45
2018-12-13T16:59:27.626Z,9.43
2018-12-13T17:01:56.897Z,8.85
2018-12-13T17:04:26.274Z,9.85
2018-12-13T17:06:55.704Z,9.00
2018-12-13T17:09:25.096Z,9.48
2018-12-13T17:11:54.344Z,11.78
2018-12-13T17:14:23.621Z,10.48
2018-12-13T17:16:53.037Z,12.58
2018-12-13T17:19:22.324Z,9.45
2018-12-13T17:21:51.592Z,10.82
2018-12-13T17:24:20.988Z,9.50
2018-12-13T17:26:50.221Z,10.05
2018-12-13T17:29:19.585Z,9.38
2018-12-13T17:31:48.848Z,9.70
2018-12-13T17:34:18.143Z,9.33
2018-12-13T17:36:47.434Z,9.90
2018-12-13T17:39:16.722Z,9.65
2018-12-13T17:41:45.943Z,10.68
2018-12-13T17:44:15.413Z,10.50
2018-12-13T17:46:44.680Z,11.15
2018-12-13T17:49:13.997Z,10.13
2018-12-13T17:51:43.289Z,11.35
2018-12-13T17:54:12.666Z,10.48
2018-12-13T17:56:41.929Z,9.80
2018-12-13T17:59:11.179Z,9.83
2018-12-13T18:01:40.446Z,10.05
2018-12-13T18:04:09.852Z,10.53
2018-12-13T18:06:39.159Z,10.10
2018-12-13T18:09:09.148Z,9.88
2018-12-13T18:11:38.816Z,11.18
2018-12-13T18:14:08.084Z,9.68
2018-12-13T18:16:43.243Z,11.53
2018-12-13T18:19:08.807Z,10.90
2018-12-13T18:21:38.393Z,11.00
2018-12-13T18:24:07.797Z,9.58
2018-12-13T18:26:37.133Z,11.00
2018-12-13T18:29:06.458Z,10.75
2018-12-13T18:31:35.787Z,11.60
2018-12-13T18:34:05.161Z,10.30
2018-12-13T18:36:34.572Z,12.05
2018-12-13T18:39:06.215Z,10.43
2018-12-13T18:41:35.725Z,12.58
2018-12-13T18:44:05.019Z,9.75
2018-12-13T18:46:34.678Z,12.10
2018-12-13T18:49:03.983Z,11.40
2018-12-13T18:51:33.349Z,11.57
2018-12-13T18:54:02.652Z,9.68
2018-12-13T18:56:31.970Z,9.35
2018-12-13T18:59:01.259Z,10.50
2018-12-13T19:01:30.533Z,11.70
2018-12-13T19:03:59.932Z,10.25
2018-12-13T19:06:29.195Z,10.78
2018-12-13T19:08:58.666Z,10.63
2018-12-13T19:11:28.179Z,10.58
2018-12-13T19:13:57.561Z,12.15
2018-12-13T19:16:26.908Z,11.10
2018-12-13T19:18:56.188Z,10.38
2018-12-13T19:21:25.470Z,10.98
2018-12-13T19:23:54.798Z,11.28
2018-12-13T19:26:24.061Z,10.75
2018-12-13T19:28:53.374Z,10.60
2018-12-13T19:31:22.710Z,11.33
2018-12-13T19:33:52.045Z,11.22
2018-12-13T19:36:21.399Z,11.25
2018-12-13T19:38:50.675Z,10.63
2018-12-13T19:41:20.000Z,10.80
2018-12-13T19:43:49.346Z,12.63
2018-12-13T19:46:18.639Z,12.35
2018-12-13T19:48:47.932Z,10.50
2018-12-13T19:51:17.260Z,14.35
2018-12-13T19:53:46.567Z,11.25
2018-12-13T19:56:15.834Z,11.03
2018-12-13T19:58:45.089Z,12.93
2018-12-13T20:01:14.336Z,11.50
2018-12-13T20:03:43.621Z,9.70
2018-12-13T20:06:12.909Z,11.20
2018-12-13T20:08:42.212Z,11.95
2018-12-13T20:11:11.459Z,10.25
2018-12-13T20:13:40.801Z,9.80
2018-12-13T20:16:10.099Z,12.98
2018-12-13T20:18:39.414Z,11.12
2018-12-13T20:21:08.706Z,11.10
2018-12-13T20:23:38.085Z,10.93
2018-12-13T20:26:07.408Z,10.68
2018-12-13T20:28:36.669Z,9.35
2018-12-13T20:31:05.982Z,8.93
2018-12-13T20:33:36.646Z,9.48
2018-12-13T20:36:06.008Z,10.08
2018-12-13T20:38:35.281Z,11.45
2018-12-13T20:41:04.566Z,9.15
2018-12-13T20:43:33.936Z,9.53
2018-12-13T20:46:03.314Z,9.25
2018-12-13T20:48:32.608Z,11.33
2018-12-13T20:51:01.922Z,9.75
2018-12-13T20:53:31.221Z,11.22
2018-12-13T20:56:00.612Z,10.38
2018-12-13T20:58:29.858Z,9.95
2018-12-13T21:00:59.182Z,9.55
2018-12-13T21:03:28.423Z,10.30
2018-12-13T21:05:57.707Z,9.65
2018-12-13T21:08:26.966Z,10.28
2018-12-13T21:10:56.262Z,10.15
2018-12-13T21:13:25.536Z,12.20
2018-12-13T21:15:54.897Z,10.40
2018-12-13T21:18:24.167Z,11.30
2018-12-13T21:20:53.460Z,10.78
2018-12-13T21:23:22.733Z,12.13
2018-12-13T21:25:51.984Z,11.00
2018-12-13T21:28:21.338Z,10.93
2018-12-13T21:30:50.616Z,10.45
2018-12-13T21:33:19.888Z,11.35
2018-12-13T21:35:49.197Z,9.70
2018-12-13T21:38:18.540Z,10.50
2018-12-13T21:40:47.804Z,10.23
2018-12-13T21:43:17.075Z,10.35
2018-12-13T21:45:46.309Z,10.70
2018-12-13T21:48:15.608Z,12.68
2018-12-13T21:50:45.802Z,9.73
2018-12-13T21:53:15.353Z,9.33
2018-12-13T21:55:44.612Z,9.70
2018-12-13T21:58:13.884Z,10.28
2018-12-13T22:00:43.181Z,10.10
2018-12-13T22:03:12.469Z,10.82
2018-12-13T22:05:41.757Z,11.55
2018-12-13T22:08:11.013Z,10.53
2018-12-13T22:10:40.276Z,10.28
2018-12-13T22:13:09.613Z,11.68
2018-12-13T22:15:38.892Z,11.30
2018-12-13T22:18:08.192Z,9.90
2018-12-13T22:20:37.437Z,10.72
2018-12-13T22:23:06.711Z,10.55
2018-12-13T22:25:36.105Z,11.00
2018-12-13T22:28:05.413Z,10.50
2018-12-13T22:30:34.759Z,10.15
2018-12-13T22:33:04.059Z,11.30
2018-12-13T22:35:33.429Z,10.32
2018-12-13T22:38:02.753Z,11.57
2018-12-13T22:40:31.997Z,10.95
2018-12-13T22:43:01.269Z,9.83
2018-12-13T22:45:30.527Z,10.82
2018-12-13T22:47:59.798Z,11.18
2018-12-13T22:50:29.072Z,11.20
2018-12-13T22:52:58.328Z,11.05
2018-12-13T22:55:27.614Z,11.00
2018-12-13T22:57:56.875Z,11.03
2018-12-13T23:00:26.129Z,12.53
2018-12-13T23:02:55.368Z,11.78
2018-12-13T23:05:24.701Z,12.23
2018-12-13T23:07:54.167Z,13.28
2018-12-13T23:10:23.475Z,10.53
2018-12-13T23:12:52.802Z,11.28
2018-12-13T23:15:22.077Z,12.23
2018-12-13T23:17:51.337Z,11.63
2018-12-13T23:20:20.674Z,10.45
2018-12-13T23:22:49.943Z,11.30
2018-12-13T23:25:19.184Z,11.48
2018-12-13T23:27:48.461Z,12.18
2018-12-13T23:30:17.705Z,12.28
2018-12-13T23:32:47.307Z,11.53
2018-12-13T23:35:16.614Z,11.48
2018-12-13T23:37:45.861Z,11.55
2018-12-13T23:40:15.142Z,11.28
2018-12-13T23:42:44.411Z,11.30
2018-12-13T23:45:13.725Z,12.80
2018-12-13T23:47:43.095Z,11.55
2018-12-13T23:50:12.471Z,14.40
2018-12-13T23:52:41.713Z,13.13
2018-12-13T23:55:10.941Z,11.53
2018-12-13T23:57:40.211Z,10.65
